Terminal Aerodrome Forecast
Issued by NWS

Home | Current Version | Previous Version | Text Only | Print | Product List | Glossary On
Versions: 1 2 3 4 5 6 7 8 9 10 11 12 13 14
000
FTUS42 KTBW 242300
TAFLAL
TAF
KLAL 242324Z 2500/2524 VRB03KT P6SM VCSH SCT025 BKN250
     FM250200 VRB03KT P6SM SCT250
     FM251500 24007KT P6SM VCTS SCT025CB BKN150=

USA.gov is the U.S. government's official web portal to all federal, state and local government web resources and services.